Time;durP1;ratioP1;P1;durP2;ratioP2;P2;SDS_P1;SDS_P2;PMS_P1;PMS_P2;Temp;Humidity;BMP_temperature;BMP_pressure;BME280_temperature;BME280_humidity;BME280_pressure;Samples;Min_cycle;Max_cycle;Signal;HPM_P1;HPM_P2
2022/06/17 00:01:30;;;;;;;4.30;2.75;;;22.10;52.60;;;;;;5055696;28;20067;-73
2022/06/17 00:03:56;;;;;;;5.60;2.88;;;22.10;52.50;;;;;;5037589;28;20049;-74
2022/06/17 00:06:24;;;;;;;4.07;2.83;;;22.10;52.70;;;;;;5052576;28;20036;-74
2022/06/17 00:08:53;;;;;;;5.45;2.75;;;22.00;52.70;;;;;;5043576;28;20021;-74
2022/06/17 00:11:32;;;;;;;6.15;3.22;;;22.00;53.00;;;;;;5055366;28;20025;-78
2022/06/17 00:13:59;;;;;;;4.95;2.53;;;21.90;53.90;;;;;;5055375;28;20029;-74
2022/06/17 00:16:30;;;;;;;5.35;2.40;;;21.90;53.80;;;;;;5037372;28;20128;-74
2022/06/17 00:18:56;;;;;;;4.57;2.53;;;21.90;53.10;;;;;;5037340;28;20029;-74
2022/06/17 00:21:31;;;;;;;3.25;2.63;;;21.80;53.00;;;;;;5037225;28;20036;-73
2022/06/17 00:24:03;;;;;;;3.30;2.38;;;21.80;53.10;;;;;;5054888;28;20488;-74
2022/06/17 00:26:29;;;;;;;5.47;2.70;;;21.80;53.10;;;;;;5037136;28;20060;-73
2022/06/17 00:28:54;;;;;;;4.15;2.80;;;21.80;53.50;;;;;;5054985;28;20025;-73
2022/06/17 00:31:20;;;;;;;3.22;2.30;;;21.70;53.30;;;;;;5036976;28;20025;-74
2022/06/17 00:33:46;;;;;;;4.93;2.72;;;21.70;53.40;;;;;;5054954;28;20032;-73
2022/06/17 00:36:18;;;;;;;3.83;2.55;;;21.70;53.80;;;;;;5036942;28;20029;-73
2022/06/17 00:38:45;;;;;;;4.30;2.90;;;21.70;53.70;;;;;;5054634;28;20404;-73
2022/06/17 00:41:20;;;;;;;8.60;3.05;;;21.70;53.60;;;;;;5054799;28;20029;-73
2022/06/17 00:43:46;;;;;;;4.10;2.97;;;21.70;53.80;;;;;;5054482;28;20029;-73
2022/06/17 00:46:36;;;;;;;5.60;2.90;;;21.70;54.60;;;;;;5035947;28;20155;-74
2022/06/17 00:49:26;;;;;;;4.78;3.00;;;21.70;54.80;;;;;;5054746;28;20021;-73
2022/06/17 00:52:01;;;;;;;3.20;2.75;;;21.70;54.90;;;;;;5036853;28;20017;-73
2022/06/17 00:54:51;;;;;;;4.22;3.13;;;21.70;55.00;;;;;;5054565;28;20483;-74
2022/06/17 00:57:26;;;;;;;6.30;2.92;;;21.70;54.80;;;;;;5036913;28;20033;-75
2022/06/17 01:00:07;;;;;;;4.05;2.55;;;21.70;54.80;;;;;;5021235;28;20417;-73
2022/06/17 01:02:40;;;;;;;3.22;2.40;;;21.70;54.70;;;;;;5021383;28;20050;-73
2022/06/17 01:05:07;;;;;;;2.90;2.57;;;21.60;54.40;;;;;;5034246;28;20038;-74
2022/06/17 01:07:37;;;;;;;3.33;2.65;;;21.60;54.20;;;;;;5041919;28;20059;-74
2022/06/17 01:10:13;;;;;;;4.32;2.90;;;21.50;54.40;;;;;;5052797;28;20025;-73
2022/06/17 01:13:02;;;;;;;5.20;3.17;;;21.50;54.70;;;;;;5054088;28;20028;-73
2022/06/17 01:15:31;;;;;;;4.13;2.88;;;21.40;55.30;;;;;;5052113;28;20027;-74
2022/06/17 01:17:58;;;;;;;7.18;3.10;;;21.40;55.90;;;;;;5048193;28;20423;-74
2022/06/17 01:20:27;;;;;;;6.70;3.10;;;21.40;56.10;;;;;;5052680;28;20488;-73
2022/06/17 01:22:59;;;;;;;4.65;3.10;;;21.30;56.20;;;;;;5053676;28;20057;-74
2022/06/17 01:25:32;;;;;;;4.75;2.90;;;21.30;56.30;;;;;;5052645;28;20036;-74
2022/06/17 01:28:04;;;;;;;4.43;3.50;;;21.30;56.50;;;;;;5053755;28;20040;-73
2022/06/17 01:30:43;;;;;;;6.90;3.20;;;21.20;56.30;;;;;;5053395;28;20385;-74
2022/06/17 01:33:31;;;;;;;4.78;2.80;;;21.20;56.00;;;;;;5053385;28;20099;-73
2022/06/17 01:36:19;;;;;;;6.10;3.00;;;21.20;55.70;;;;;;5037532;28;20025;-73
2022/06/17 01:38:53;;;;;;;6.55;3.53;;;21.10;55.70;;;;;;5052090;28;20033;-73
2022/06/17 01:41:20;;;;;;;;;;;21.00;56.00;;;;;;5053938;28;20078;-73
2022/06/17 01:44:03;;;;;;;4.35;2.90;;;21.00;54.90;;;;;;5050620;28;19972;-74
2022/06/17 01:46:44;;;;;;;2.72;2.45;;;21.00;55.50;;;;;;5051814;28;20067;-73
2022/06/17 01:49:34;;;;;;;3.60;3.08;;;20.90;55.70;;;;;;5038249;28;20483;-73
2022/06/17 01:52:15;;;;;;;7.22;3.08;;;20.90;56.00;;;;;;5042297;28;20392;-73
2022/06/17 01:55:09;;;;;;;3.85;3.10;;;20.80;56.50;;;;;;5051924;28;20412;-74
2022/06/17 01:58:13;;;;;;;3.95;3.00;;;20.70;56.80;;;;;;5039677;28;20072;-74
2022/06/17 02:00:43;;;;;;;4.78;3.30;;;20.80;57.10;;;;;;5043450;28;20040;-76
2022/06/17 02:03:28;;;;;;;4.78;2.67;;;20.80;57.40;;;;;;5051320;28;20420;-74
2022/06/17 02:06:07;;;;;;;8.40;2.88;;;20.80;57.50;;;;;;5051712;28;20454;-73
2022/06/17 02:08:36;;;;;;;6.43;2.92;;;20.80;57.50;;;;;;5052952;28;20067;-73
2022/06/17 02:11:03;;;;;;;3.92;3.20;;;20.70;57.70;;;;;;5036437;28;20028;-74
2022/06/17 02:13:32;;;;;;;7.13;3.00;;;20.70;57.80;;;;;;5044774;28;20096;-74
2022/06/17 02:16:05;;;;;;;3.40;3.10;;;20.70;57.40;;;;;;5043213;28;20075;-73
2022/06/17 02:18:32;;;;;;;6.82;3.85;;;20.70;57.20;;;;;;5050992;28;20024;-73
2022/06/17 02:21:03;;;;;;;4.10;3.28;;;20.70;57.40;;;;;;5051171;28;20522;-73
2022/06/17 02:23:33;;;;;;;4.00;3.25;;;20.70;57.30;;;;;;5044842;28;20026;-74
2022/06/17 02:26:01;;;;;;;4.03;3.47;;;20.70;57.30;;;;;;5044282;28;20048;-74
2022/06/17 02:28:31;;;;;;;4.50;3.40;;;20.60;57.30;;;;;;5037239;28;20032;-73
2022/06/17 02:30:59;;;;;;;8.70;3.38;;;20.70;57.70;;;;;;5047867;28;20026;-74
2022/06/17 02:33:28;;;;;;;3.65;3.17;;;20.60;57.90;;;;;;5039760;28;20021;-73
2022/06/17 02:35:58;;;;;;;6.63;3.10;;;20.60;58.10;;;;;;5052106;28;20535;-73
2022/06/17 02:38:32;;;;;;;3.70;3.13;;;20.60;58.30;;;;;;5037338;28;20028;-73
2022/06/17 02:40:59;;;;;;;;;;;20.50;58.10;;;;;;5051665;28;20086;-73
2022/06/17 02:43:35;;;;;;;5.43;3.10;;;20.60;56.90;;;;;;5045385;28;20063;-73
2022/06/17 02:46:10;;;;;;;3.70;3.13;;;20.50;57.50;;;;;;5043320;28;20025;-73
2022/06/17 02:48:54;;;;;;;4.28;3.05;;;20.50;57.50;;;;;;5050904;28;20062;-74
2022/06/17 02:51:23;;;;;;;7.23;2.63;;;20.40;57.40;;;;;;5037572;28;20469;-77
2022/06/17 02:53:49;;;;;;;5.65;3.35;;;20.40;57.20;;;;;;5052141;28;20377;-74
2022/06/17 02:56:20;;;;;;;6.28;3.50;;;20.40;57.70;;;;;;5037195;28;20040;-73
2022/06/17 02:59:05;;;;;;;3.95;3.40;;;20.30;57.90;;;;;;5048883;28;20029;-74
2022/06/17 03:01:34;;;;;;;3.20;2.90;;;20.30;58.00;;;;;;5031342;28;20415;-73
2022/06/17 03:04:01;;;;;;;6.22;3.50;;;20.30;57.80;;;;;;5043136;28;20043;-74
2022/06/17 03:06:38;;;;;;;4.13;2.75;;;20.30;57.60;;;;;;5051017;28;20040;-73
2022/06/17 03:09:23;;;;;;;5.28;2.88;;;20.30;57.80;;;;;;5044402;28;20025;-73
2022/06/17 03:12:03;;;;;;;4.03;2.63;;;20.30;57.80;;;;;;5056275;28;20287;-73
2022/06/17 03:14:35;;;;;;;3.15;2.50;;;20.30;57.90;;;;;;5056161;28;20464;-73
2022/06/17 03:17:07;;;;;;;3.38;2.80;;;20.30;57.90;;;;;;5055710;28;20485;-73
2022/06/17 03:19:36;;;;;;;5.40;3.15;;;20.20;57.80;;;;;;5047809;28;20026;-74
2022/06/17 03:22:04;;;;;;;7.45;3.80;;;20.30;57.90;;;;;;5046830;28;20106;-73
2022/06/17 03:24:59;;;;;;;4.10;3.10;;;20.30;57.70;;;;;;5054553;28;20055;-74
2022/06/17 03:27:49;;;;;;;3.10;2.50;;;20.20;58.00;;;;;;5055684;28;20044;-73
2022/06/17 03:30:30;;;;;;;4.38;2.75;;;20.20;58.00;;;;;;5054414;28;20021;-73
2022/06/17 03:33:21;;;;;;;3.00;2.70;;;20.20;58.10;;;;;;5052540;28;20033;-74
2022/06/17 03:35:53;;;;;;;5.32;2.85;;;20.30;58.00;;;;;;5035275;28;20091;-73
2022/06/17 03:38:45;;;;;;;5.30;3.00;;;20.20;58.00;;;;;;5039896;28;20029;-73
2022/06/17 03:41:25;;;;;;;4.30;3.10;;;20.20;58.30;;;;;;5042277;28;20034;-73
2022/06/17 03:44:12;;;;;;;3.55;2.65;;;20.20;58.10;;;;;;5052184;28;20040;-73
2022/06/17 03:46:54;;;;;;;4.65;2.83;;;20.20;58.00;;;;;;5036938;28;20461;-74
2022/06/17 03:49:59;;;;;;;4.90;3.33;;;20.20;58.10;;;;;;5040644;28;20465;-73
2022/06/17 03:52:37;;;;;;;4.72;3.20;;;20.30;58.40;;;;;;5050649;28;20116;-76
2022/06/17 03:55:04;;;;;;;6.22;3.35;;;20.30;58.50;;;;;;5049809;28;20178;-73
2022/06/17 03:57:32;;;;;;;8.10;3.20;;;20.30;58.30;;;;;;5054974;28;20083;-75
2022/06/17 03:59:59;;;;;;;3.67;2.53;;;20.40;58.70;;;;;;5050992;28;20090;-74
2022/06/17 04:02:29;;;;;;;8.68;3.58;;;20.50;58.60;;;;;;5039624;28;20058;-76
2022/06/17 04:05:00;;;;;;;4.47;3.17;;;20.60;58.60;;;;;;5035818;28;20216;-74
2022/06/17 04:07:26;;;;;;;3.75;3.13;;;20.60;58.30;;;;;;5033882;28;20489;-74
2022/06/17 04:09:54;;;;;;;5.40;3.47;;;20.70;58.30;;;;;;5044539;28;20045;-74
2022/06/17 04:12:26;;;;;;;4.10;3.13;;;20.80;58.30;;;;;;5054192;28;20029;-74
2022/06/17 04:15:29;;;;;;;4.05;3.63;;;20.90;58.20;;;;;;5038265;28;20109;-74
2022/06/17 04:17:55;;;;;;;4.10;3.35;;;20.90;57.90;;;;;;5053509;28;20040;-74
2022/06/17 04:20:43;;;;;;;5.35;2.90;;;21.10;57.90;;;;;;5039130;28;20025;-75
2022/06/17 04:23:33;;;;;;;3.40;2.95;;;21.20;57.80;;;;;;5042796;28;20078;-74
2022/06/17 04:26:09;;;;;;;3.30;2.80;;;21.30;57.60;;;;;;5042931;28;20029;-74
2022/06/17 04:28:54;;;;;;;4.75;3.22;;;21.50;57.50;;;;;;5051011;28;20385;-74
2022/06/17 04:31:23;;;;;;;3.83;3.20;;;21.60;57.00;;;;;;5046741;28;20057;-76
2022/06/17 04:33:53;;;;;;;5.97;3.50;;;21.70;56.70;;;;;;5041925;28;20036;-75
2022/06/17 04:36:24;;;;;;;9.98;3.55;;;21.70;56.30;;;;;;5054067;28;20385;-74
2022/06/17 04:39:03;;;;;;;5.10;3.25;;;21.80;56.00;;;;;;5053215;28;20025;-74
2022/06/17 04:41:37;;;;;;;8.57;3.70;;;21.80;55.80;;;;;;5046942;28;20373;-74
2022/06/17 04:44:04;;;;;;;;;;;21.80;55.60;;;;;;5046007;28;20032;-74
2022/06/17 04:46:34;;;;;;;3.83;3.25;;;21.90;55.70;;;;;;5038324;28;20003;-75
2022/06/17 04:49:02;;;;;;;7.07;3.47;;;21.80;55.40;;;;;;5037658;28;20032;-74
2022/06/17 04:51:31;;;;;;;7.55;4.15;;;21.80;55.50;;;;;;5052908;28;20021;-74
2022/06/17 04:53:57;;;;;;;7.82;3.03;;;21.80;55.70;;;;;;5054032;28;20025;-75
2022/06/17 04:56:47;;;;;;;7.35;3.90;;;21.90;55.90;;;;;;5037956;28;20493;-74
2022/06/17 04:59:58;;;;;;;5.45;3.30;;;21.90;56.00;;;;;;5039362;28;20033;-74
2022/06/17 05:02:30;;;;;;;8.70;3.67;;;22.00;56.00;;;;;;5050098;28;20051;-74
2022/06/17 05:05:04;;;;;;;6.05;3.38;;;22.10;55.90;;;;;;5050653;28;20445;-75
2022/06/17 05:07:40;;;;;;;3.50;3.20;;;22.20;55.70;;;;;;5041474;28;20078;-74
2022/06/17 05:10:12;;;;;;;5.60;3.58;;;22.30;55.10;;;;;;5054050;28;20079;-74
2022/06/17 05:12:42;;;;;;;10.07;3.80;;;22.40;54.70;;;;;;5052505;28;20059;-77
2022/06/17 05:15:17;;;;;;;7.13;3.45;;;22.50;54.70;;;;;;5052487;28;20530;-79
2022/06/17 05:17:43;;;;;;;5.45;3.33;;;22.50;54.70;;;;;;5053166;28;20032;-74
2022/06/17 05:20:16;;;;;;;5.25;2.92;;;22.60;54.60;;;;;;5052427;28;20029;-74
2022/06/17 05:23:02;;;;;;;4.80;3.23;;;22.60;54.40;;;;;;5052351;28;20032;-74
2022/06/17 05:25:32;;;;;;;5.40;3.13;;;22.70;54.40;;;;;;5052257;28;20025;-74
2022/06/17 05:27:58;;;;;;;6.90;3.08;;;22.70;54.20;;;;;;5040682;28;20081;-75
2022/06/17 05:30:24;;;;;;;4.57;3.13;;;22.70;54.20;;;;;;5048475;28;20029;-74
2022/06/17 05:32:53;;;;;;;11.13;3.40;;;22.70;54.30;;;;;;5035504;28;20113;-76
2022/06/17 05:35:20;;;;;;;8.93;3.95;;;22.70;54.30;;;;;;5051581;28;20025;-74
2022/06/17 05:37:47;;;;;;;11.18;3.30;;;22.70;54.10;;;;;;5051644;28;20043;-74
2022/06/17 05:40:14;;;;;;;10.02;3.50;;;22.80;54.20;;;;;;5053091;28;20420;-75
2022/06/17 05:42:41;;;;;;;6.85;2.97;;;22.70;54.10;;;;;;5051592;28;20029;-74
2022/06/17 05:45:13;;;;;;;9.00;3.75;;;22.80;54.20;;;;;;5053369;28;20413;-74
2022/06/17 05:47:41;;;;;;;12.57;3.70;;;22.80;54.10;;;;;;5053473;28;20454;-74
2022/06/17 05:50:10;;;;;;;4.72;3.22;;;22.90;54.30;;;;;;5053319;28;20449;-74
2022/06/17 05:52:59;;;;;;;5.28;2.97;;;22.90;54.40;;;;;;5036764;28;20079;-75
2022/06/17 05:55:28;;;;;;;5.80;2.90;;;23.00;54.50;;;;;;5039954;28;20023;-74
2022/06/17 05:57:55;;;;;;;3.70;3.08;;;23.10;54.50;;;;;;5052895;28;20052;-75
2022/06/17 06:00:23;;;;;;;9.25;3.22;;;23.20;54.40;;;;;;5051146;28;20028;-74
2022/06/17 06:02:50;;;;;;;5.10;3.55;;;23.30;53.80;;;;;;5049133;28;20139;-74
2022/06/17 06:05:20;;;;;;;7.00;3.20;;;23.40;53.30;;;;;;5037807;28;20037;-74
2022/06/17 06:07:50;;;;;;;6.00;3.20;;;23.50;52.20;;;;;;5049773;28;20378;-74
2022/06/17 06:10:20;;;;;;;4.47;3.45;;;23.50;52.20;;;;;;5052700;28;20472;-75
2022/06/17 06:13:05;;;;;;;8.15;3.28;;;23.50;50.80;;;;;;5051568;28;20119;-74
2022/06/17 06:15:38;;;;;;;;;;;23.50;50.90;;;;;;5040073;28;20029;-73
2022/06/17 06:18:05;;;;;;;3.67;2.55;;;23.50;51.90;;;;;;5052852;28;20352;-75
2022/06/17 06:20:31;;;;;;;3.83;3.08;;;23.60;51.20;;;;;;5045897;28;20025;-73
2022/06/17 06:22:59;;;;;;;6.78;3.58;;;23.60;51.00;;;;;;5046107;28;20038;-73
2022/06/17 06:25:25;;;;;;;8.02;3.05;;;23.70;50.90;;;;;;5038786;28;20499;-74
2022/06/17 06:27:51;;;;;;;4.05;2.95;;;23.70;50.10;;;;;;5051425;28;20072;-73
2022/06/17 06:30:23;;;;;;;4.50;3.20;;;23.70;50.40;;;;;;5051405;28;20400;-74
2022/06/17 06:33:00;;;;;;;5.90;3.20;;;23.80;49.80;;;;;;5040497;28;20048;-73
2022/06/17 06:35:29;;;;;;;7.07;3.10;;;23.90;49.30;;;;;;5049172;28;20100;-73
2022/06/17 06:37:55;;;;;;;4.70;2.60;;;24.00;48.60;;;;;;5052838;28;20032;-73
2022/06/17 06:40:21;;;;;;;9.15;3.05;;;24.00;48.30;;;;;;5051336;28;20025;-73
2022/06/17 06:42:49;;;;;;;2.85;2.35;;;24.10;48.20;;;;;;5053108;28;20079;-73
2022/06/17 06:45:21;;;;;;;5.00;2.22;;;24.30;48.70;;;;;;5049610;28;20374;-73
2022/06/17 06:47:52;;;;;;;3.63;2.80;;;24.50;48.40;;;;;;5045359;28;20127;-76
2022/06/17 06:50:23;;;;;;;7.53;2.67;;;24.60;48.10;;;;;;5055607;28;20139;-73
2022/06/17 06:52:52;;;;;;;10.70;3.05;;;24.80;47.80;;;;;;5055236;28;20387;-74
2022/06/17 06:55:20;;;;;;;5.43;2.83;;;24.90;47.50;;;;;;5048998;28;20037;-74
2022/06/17 06:57:49;;;;;;;6.65;2.75;;;25.00;47.50;;;;;;5046462;28;20029;-74
2022/06/17 07:00:27;;;;;;;6.55;2.90;;;25.10;46.70;;;;;;5054422;28;20350;-74
2022/06/17 07:02:53;;;;;;;7.40;2.65;;;25.20;45.30;;;;;;5054601;28;20037;-73
2022/06/17 07:05:19;;;;;;;7.38;2.75;;;25.30;44.90;;;;;;5056076;28;20036;-74
2022/06/17 07:07:46;;;;;;;6.47;2.97;;;25.30;44.70;;;;;;5054491;28;20037;-77
2022/06/17 07:10:22;;;;;;;6.88;2.85;;;25.30;45.10;;;;;;5046677;28;20080;-74
2022/06/17 07:12:52;;;;;;;3.75;2.40;;;25.40;44.80;;;;;;5052251;28;20457;-73
2022/06/17 07:15:21;;;;;;;7.00;2.97;;;25.50;43.20;;;;;;5035989;28;20033;-73
2022/06/17 07:18:10;;;;;;;7.20;2.70;;;25.60;43.50;;;;;;5045251;28;20028;-73
2022/06/17 07:20:42;;;;;;;4.53;2.90;;;25.80;44.20;;;;;;5039220;28;20029;-76
2022/06/17 07:23:14;;;;;;;10.10;2.63;;;25.90;43.60;;;;;;5054038;28;20017;-73
2022/06/17 07:25:41;;;;;;;4.10;2.50;;;25.90;42.60;;;;;;5054631;28;20021;-74
2022/06/17 07:28:08;;;;;;;6.45;2.70;;;26.00;42.30;;;;;;5055642;28;20037;-73
2022/06/17 07:30:34;;;;;;;3.85;2.60;;;26.10;42.20;;;;;;5051199;28;20025;-76
2022/06/17 07:33:01;;;;;;;4.45;2.50;;;26.20;42.10;;;;;;5051464;28;20214;-73
2022/06/17 07:35:28;;;;;;;5.88;2.55;;;26.40;41.50;;;;;;5054710;28;20047;-74
2022/06/17 07:40:39;;;;;;;3.00;2.15;;;26.60;40.80;;;;;;5056024;28;20484;-74
2022/06/17 07:43:05;;;;;;;10.35;2.63;;;26.60;40.80;;;;;;5054149;28;20041;-74
2022/06/17 07:45:34;;;;;;;4.00;2.47;;;26.70;40.50;;;;;;5053874;28;20029;-74
2022/06/17 07:48:04;;;;;;;4.97;2.30;;;26.80;40.40;;;;;;5054253;28;20079;-74
2022/06/17 07:50:32;;;;;;;6.03;2.78;;;26.90;40.40;;;;;;5054198;28;20075;-75
2022/06/17 07:52:58;;;;;;;5.47;2.38;;;27.10;39.80;;;;;;5054003;28;20457;-73
2022/06/17 07:55:27;;;;;;;5.72;2.63;;;27.30;39.50;;;;;;5053889;28;20026;-74
2022/06/17 07:57:53;;;;;;;6.75;2.75;;;27.50;39.30;;;;;;5054329;28;20024;-75
2022/06/17 08:00:46;;;;;;;3.97;2.72;;;27.60;39.00;;;;;;5055174;28;20500;-74
2022/06/17 08:03:15;;;;;;;8.57;2.63;;;27.70;38.90;;;;;;5047084;28;20092;-74
2022/06/17 08:05:44;;;;;;;3.58;2.42;;;27.70;37.80;;;;;;5054155;28;20770;-74
2022/06/17 08:08:11;;;;;;;3.75;2.58;;;27.80;37.80;;;;;;5053646;28;20472;-74
2022/06/17 08:10:38;;;;;;;3.47;2.22;;;27.80;37.00;;;;;;5053712;28;20134;-73
2022/06/17 08:13:06;;;;;;;4.32;2.55;;;27.80;37.20;;;;;;5054465;28;20036;-73
2022/06/17 08:15:33;;;;;;;3.90;2.60;;;27.90;37.70;;;;;;5054000;28;20028;-76
2022/06/17 08:18:00;;;;;;;4.15;2.78;;;28.00;37.20;;;;;;5055252;28;20058;-74
2022/06/17 08:20:35;;;;;;;4.38;2.90;;;28.00;37.50;;;;;;5053529;28;20388;-73
2022/06/17 08:23:03;;;;;;;4.22;2.70;;;28.10;37.20;;;;;;5053898;28;20590;-74
2022/06/17 08:25:30;;;;;;;3.45;2.30;;;28.10;36.80;;;;;;5053668;28;20025;-74
2022/06/17 08:27:58;;;;;;;5.30;2.53;;;28.10;37.40;;;;;;5054888;28;20086;-73
2022/06/17 08:30:28;;;;;;;5.88;2.97;;;28.00;37.70;;;;;;5053608;28;20044;-74
2022/06/17 08:32:55;;;;;;;9.40;3.00;;;27.90;37.50;;;;;;5053225;28;20171;-74
2022/06/17 08:35:41;;;;;;;7.95;3.60;;;27.80;37.80;;;;;;5053684;28;20057;-74
2022/06/17 08:38:17;;;;;;;3.83;2.50;;;27.80;37.40;;;;;;5054620;28;20044;-73
2022/06/17 08:40:53;;;;;;;8.02;3.13;;;27.80;37.30;;;;;;5053581;28;20052;-73
2022/06/17 08:43:49;;;;;;;3.65;2.45;;;27.70;37.30;;;;;;5053396;28;20029;-73
2022/06/17 08:46:49;;;;;;;4.05;2.40;;;27.70;37.30;;;;;;5054573;28;20021;-73
2022/06/17 08:49:27;;;;;;;6.55;3.13;;;27.80;37.80;;;;;;5054343;28;20469;-74
2022/06/17 08:52:27;;;;;;;3.45;2.60;;;27.80;37.90;;;;;;5054405;28;20029;-74
2022/06/17 08:55:25;;;;;;;4.28;2.42;;;27.80;37.30;;;;;;5029218;28;20564;-75
2022/06/17 08:58:12;;;;;;;4.60;2.65;;;27.80;36.50;;;;;;5047613;28;20029;-73
2022/06/17 09:00:45;;;;;;;5.38;2.53;;;27.70;36.30;;;;;;5054430;28;20028;-73
2022/06/17 09:03:26;;;;;;;3.08;2.42;;;27.70;36.30;;;;;;5052650;28;20064;-74
2022/06/17 09:06:26;;;;;;;13.35;2.58;;;27.70;36.80;;;;;;5054222;28;20032;-77
2022/06/17 09:09:25;;;;;;;5.03;2.40;;;27.60;36.60;;;;;;5047931;28;20052;-74
2022/06/17 09:12:04;;;;;;;4.28;2.28;;;27.60;37.00;;;;;;5032924;28;20068;-78
2022/06/17 09:15:14;;;;;;;2.65;2.40;;;27.60;36.30;;;;;;5046155;28;20040;-76
2022/06/17 09:18:24;;;;;;;3.67;2.40;;;27.60;37.10;;;;;;5052734;28;20040;-74
2022/06/17 09:20:55;;;;;;;3.35;2.28;;;27.60;36.70;;;;;;5052781;28;20024;-73
2022/06/17 09:23:25;;;;;;;3.83;2.72;;;27.60;35.70;;;;;;5052730;28;20571;-74
2022/06/17 09:25:53;;;;;;;5.82;2.60;;;27.60;35.70;;;;;;5040451;28;20532;-74
2022/06/17 09:28:25;;;;;;;5.43;2.85;;;27.60;35.90;;;;;;5033991;28;20454;-74
2022/06/17 09:31:01;;;;;;;5.00;3.13;;;27.60;35.70;;;;;;5032648;28;20025;-74
2022/06/17 09:33:35;;;;;;;8.13;3.55;;;27.70;36.20;;;;;;5032615;28;20040;-74
2022/06/17 09:36:19;;;;;;;6.22;2.88;;;27.80;36.00;;;;;;5033940;28;20021;-74
2022/06/17 09:39:09;;;;;;;5.65;2.85;;;27.90;35.90;;;;;;5033584;28;20028;-73
2022/06/17 09:41:40;;;;;;;4.15;2.63;;;28.00;36.00;;;;;;5052274;28;20021;-78
2022/06/17 09:44:24;;;;;;;6.80;2.65;;;28.00;36.10;;;;;;5052398;28;20442;-73
2022/06/17 09:47:10;;;;;;;4.25;2.55;;;28.10;35.70;;;;;;5052255;28;20036;-74
2022/06/17 09:49:49;;;;;;;7.20;2.63;;;28.20;35.90;;;;;;5036801;28;20029;-74
2022/06/17 09:52:19;;;;;;;4.22;2.42;;;28.30;35.30;;;;;;5032273;28;20168;-74
2022/06/17 09:55:05;;;;;;;7.35;2.75;;;28.40;35.50;;;;;;5040098;28;20028;-77
2022/06/17 09:57:30;;;;;;;4.35;2.22;;;28.50;35.00;;;;;;5039544;28;20178;-75
2022/06/17 10:00:04;;;;;;;4.65;2.63;;;28.50;35.10;;;;;;5052959;28;20491;-73
2022/06/17 10:02:42;;;;;;;4.05;2.70;;;28.60;34.00;;;;;;5051754;28;20040;-74
2022/06/17 10:05:19;;;;;;;16.38;3.28;;;28.70;34.50;;;;;;5052737;28;20027;-73
2022/06/17 10:07:53;;;;;;;3.50;2.50;;;28.80;34.10;;;;;;5034960;28;20051;-77
2022/06/17 10:10:58;;;;;;;5.38;3.30;;;28.90;34.20;;;;;;5050856;28;20033;-74
2022/06/17 10:13:47;;;;;;;8.50;2.78;;;29.00;33.80;;;;;;5027319;28;20037;-75
2022/06/17 10:19:28;;;;;;;8.10;2.55;;;29.20;33.10;;;;;;5038114;28;20041;-77
2022/06/17 10:22:25;;;;;;;12.00;3.20;;;29.30;33.60;;;;;;5035451;28;20033;-74
2022/06/17 10:25:12;;;;;;;4.95;2.90;;;29.50;33.00;;;;;;5039310;28;20025;-74
2022/06/17 10:27:56;;;;;;;7.57;2.88;;;29.60;33.00;;;;;;5037418;28;20036;-75
2022/06/17 10:30:38;;;;;;;7.75;2.90;;;29.60;32.90;;;;;;5047860;28;20025;-78
2022/06/17 10:33:04;;;;;;;8.55;2.60;;;29.60;32.50;;;;;;5051319;28;20033;-73
2022/06/17 10:35:35;;;;;;;4.57;2.50;;;29.50;32.60;;;;;;5040814;28;20033;-74
2022/06/17 10:38:05;;;;;;;5.82;2.90;;;29.40;32.80;;;;;;5051638;28;20431;-74
2022/06/17 10:40:36;;;;;;;3.42;2.38;;;29.30;33.00;;;;;;5051006;28;20036;-75
2022/06/17 10:43:10;;;;;;;8.65;3.90;;;29.30;32.70;;;;;;5038804;28;20387;-76
2022/06/17 10:45:38;;;;;;;7.30;2.95;;;29.30;33.20;;;;;;5049208;28;20051;-74
2022/06/17 10:48:23;;;;;;;6.07;2.95;;;29.30;33.00;;;;;;5042720;28;20116;-74
2022/06/17 10:50:49;;;;;;;3.47;2.40;;;29.30;32.80;;;;;;5039709;28;20017;-73
2022/06/17 10:53:28;;;;;;;5.25;2.30;;;29.30;32.80;;;;;;5046700;28;20025;-74
2022/06/17 10:55:58;;;;;;;9.75;2.97;;;29.30;33.00;;;;;;5047948;28;20030;-74
2022/06/17 10:58:30;;;;;;;8.30;2.97;;;29.30;33.00;;;;;;5052370;28;20040;-74
2022/06/17 11:01:02;;;;;;;5.95;3.25;;;29.40;32.70;;;;;;5051422;28;20029;-74
2022/06/17 11:03:40;;;;;;;3.88;2.80;;;29.30;33.00;;;;;;5050502;28;20083;-73
2022/06/17 11:06:09;;;;;;;5.70;2.55;;;29.40;33.30;;;;;;5047756;28;20029;-74
2022/06/17 11:08:41;;;;;;;4.53;2.45;;;29.50;33.30;;;;;;5045225;28;20025;-74
2022/06/17 11:14:00;;;;;;;2.97;2.63;;;29.80;33.10;;;;;;5052381;28;20566;-74
2022/06/17 11:16:27;;;;;;;10.05;2.60;;;30.10;32.60;;;;;;5051190;28;20029;-74
2022/06/17 11:18:59;;;;;;;4.55;2.50;;;30.30;32.40;;;;;;5050303;28;20354;-74
2022/06/17 11:21:31;;;;;;;5.30;2.50;;;30.50;32.40;;;;;;5035316;28;20028;-74
2022/06/17 11:24:01;;;;;;;7.03;2.90;;;30.80;32.00;;;;;;5046017;28;20457;-74
2022/06/17 11:26:34;;;;;;;4.50;2.30;;;31.00;31.00;;;;;;5044798;28;20099;-77
2022/06/17 11:29:18;;;;;;;3.22;2.40;;;31.20;31.30;;;;;;5036134;28;20029;-74
2022/06/17 11:31:49;;;;;;;4.13;2.30;;;31.20;29.90;;;;;;5043099;28;20051;-74
2022/06/17 11:34:26;;;;;;;4.47;2.28;;;31.30;30.00;;;;;;5052883;28;20051;-74
2022/06/17 11:37:04;;;;;;;4.50;2.30;;;31.30;29.80;;;;;;5053880;28;20033;-75
2022/06/17 11:39:37;;;;;;;4.38;2.30;;;31.30;29.50;;;;;;5054954;28;20528;-74
2022/06/17 11:42:22;;;;;;;3.05;2.30;;;31.20;29.10;;;;;;5056093;28;20454;-74
2022/06/17 11:45:05;;;;;;;7.20;2.65;;;31.10;29.50;;;;;;5054538;28;20116;-74
2022/06/17 11:47:34;;;;;;;4.72;2.30;;;31.00;29.50;;;;;;5055093;28;20078;-74
2022/06/17 11:50:19;;;;;;;3.75;2.65;;;30.90;29.50;;;;;;5055821;28;20029;-74
2022/06/17 11:52:48;;;;;;;4.32;2.22;;;30.80;29.90;;;;;;5041524;28;20469;-74
2022/06/17 11:55:15;;;;;;;5.72;3.08;;;30.70;29.70;;;;;;5034556;28;20535;-74
2022/06/17 11:57:41;;;;;;;4.35;2.60;;;30.60;29.70;;;;;;5034537;28;20489;-74
2022/06/17 12:00:39;;;;;;;3.15;2.17;;;30.60;29.70;;;;;;5035732;28;20291;-74
2022/06/17 12:03:05;;;;;;;7.50;2.50;;;30.60;30.10;;;;;;5052216;28;20057;-75
2022/06/17 12:05:33;;;;;;;4.45;2.42;;;30.70;30.00;;;;;;5054829;28;20025;-74
2022/06/17 12:08:24;;;;;;;3.40;2.47;;;30.80;29.80;;;;;;5054203;28;20033;-74
2022/06/17 12:10:54;;;;;;;7.30;2.97;;;31.00;29.90;;;;;;5054363;28;20033;-74
2022/06/17 12:13:32;;;;;;;2.95;2.22;;;31.10;29.30;;;;;;5055177;28;20017;-74
2022/06/17 12:16:24;;;;;;;4.00;2.38;;;31.20;29.50;;;;;;5054115;28;20465;-74
2022/06/17 12:18:56;;;;;;;3.28;2.20;;;31.20;29.40;;;;;;5054135;28;20025;-74
2022/06/17 12:21:45;;;;;;;7.55;2.33;;;31.30;29.20;;;;;;5054706;28;20109;-74
2022/06/17 12:24:39;;;;;;;4.03;2.30;;;31.40;29.30;;;;;;5048419;28;20029;-74
2022/06/17 12:27:07;;;;;;;2.92;2.53;;;31.50;29.20;;;;;;5054937;28;20148;-74
2022/06/17 12:29:45;;;;;;;6.22;2.50;;;31.50;28.90;;;;;;5053418;28;20048;-74
2022/06/17 12:32:33;;;;;;;3.70;2.40;;;31.50;28.30;;;;;;5061524;28;20384;-73
2022/06/17 12:35:21;;;;;;;2.60;2.40;;;31.40;28.40;;;;;;5073928;28;20158;-74
2022/06/17 12:38:22;;;;;;;7.35;2.38;;;31.30;28.90;;;;;;5073778;28;20454;-74
2022/06/17 12:40:53;;;;;;;3.58;2.33;;;31.30;28.80;;;;;;5072915;28;20494;-74
2022/06/17 12:43:30;;;;;;;8.20;3.55;;;31.20;29.20;;;;;;5073488;28;20036;-74
2022/06/17 12:46:06;;;;;;;5.50;2.70;;;31.20;29.70;;;;;;5074876;28;20080;-74
2022/06/17 12:55:25;;;;;;;5.75;2.97;;;31.30;29.60;;;;;;5054634;28;20487;-74
2022/06/17 12:58:09;;;;;;;3.55;2.08;;;31.40;29.30;;;;;;5053011;28;20033;-74
2022/06/17 13:00:49;;;;;;;5.97;2.20;;;31.40;29.20;;;;;;5053379;28;20060;-74
2022/06/17 13:03:27;;;;;;;4.82;2.53;;;31.50;29.30;;;;;;5052930;28;20176;-74
2022/06/17 13:05:57;;;;;;;3.20;2.40;;;31.60;29.00;;;;;;5052905;28;20024;-74
2022/06/17 13:08:48;;;;;;;3.33;2.35;;;31.70;28.80;;;;;;5053058;28;20033;-74
2022/06/17 13:11:46;;;;;;;4.88;2.22;;;31.80;28.50;;;;;;5053195;28;20021;-75
2022/06/17 13:14:37;;;;;;;3.67;2.20;;;31.80;28.00;;;;;;5053452;28;20132;-74
2022/06/17 13:17:29;;;;;;;3.40;1.80;;;31.80;27.30;;;;;;5052686;28;20036;-74
2022/06/17 13:20:19;;;;;;;4.55;1.80;;;31.90;27.90;;;;;;5054215;28;20518;-74
2022/06/17 13:22:52;;;;;;;5.95;2.10;;;31.90;27.70;;;;;;5052973;28;20491;-74
2022/06/17 13:25:29;;;;;;;;;;;32.10;27.10;;;;;;5054713;28;20039;-74
2022/06/17 13:28:09;;;;;;;4.38;1.75;;;32.40;28.10;;;;;;5054122;28;19916;-74
2022/06/17 13:31:04;;;;;;;1.75;1.58;;;32.80;26.10;;;;;;5053753;28;20025;-74
2022/06/17 13:33:36;;;;;;;3.78;1.98;;;33.30;26.40;;;;;;5050448;28;20067;-74
2022/06/17 13:36:24;;;;;;;3.22;1.70;;;33.70;24.10;;;;;;5054029;28;20028;-74
2022/06/17 13:39:13;;;;;;;2.33;1.85;;;34.20;25.10;;;;;;5053639;28;20468;-76
2022/06/17 13:41:49;;;;;;;3.53;1.67;;;34.60;24.00;;;;;;5052471;28;20025;-75
2022/06/17 13:44:52;;;;;;;9.45;2.00;;;35.10;23.30;;;;;;5053895;28;20029;-75
2022/06/17 13:47:30;;;;;;;4.20;2.08;;;35.60;24.10;;;;;;5053435;28;20143;-74